sensor_id;sensor_type;location;lat;lon;timestamp;temperature;humidity
68051;DHT22;54839;51.364;7.246;2023-02-27T00:00:37;-1.60;99.90
68051;DHT22;54839;51.364;7.246;2023-02-27T00:03:03;-1.60;99.90
68051;DHT22;54839;51.364;7.246;2023-02-27T00:05:28;-1.70;99.90
68051;DHT22;54839;51.364;7.246;2023-02-27T00:07:54;-1.70;99.90
68051;DHT22;54839;51.364;7.246;2023-02-27T00:10:19;-1.70;99.90
68051;DHT22;54839;51.364;7.246;2023-02-27T00:12:45;-1.60;99.90
68051;DHT22;54839;51.364;7.246;2023-02-27T00:15:13;-1.70;99.90
68051;DHT22;54839;51.364;7.246;2023-02-27T00:17:39;-1.70;99.90
68051;DHT22;54839;51.364;7.246;2023-02-27T00:20:07;-1.60;99.90
68051;DHT22;54839;51.364;7.246;2023-02-27T00:22:35;-1.80;99.90
68051;DHT22;54839;51.364;7.246;2023-02-27T00:25:01;-1.90;99.90
68051;DHT22;54839;51.364;7.246;2023-02-27T00:27:26;-1.80;99.90
68051;DHT22;54839;51.364;7.246;2023-02-27T00:29:52;-1.90;99.90
68051;DHT22;54839;51.364;7.246;2023-02-27T00:32:18;-1.80;99.90
68051;DHT22;54839;51.364;7.246;2023-02-27T00:34:43;-1.70;99.90
68051;DHT22;54839;51.364;7.246;2023-02-27T00:37:09;-1.80;99.90
68051;DHT22;54839;51.364;7.246;2023-02-27T00:39:34;-1.80;99.90
68051;DHT22;54839;51.364;7.246;2023-02-27T00:42:00;-1.90;99.90
68051;DHT22;54839;51.364;7.246;2023-02-27T00:44:25;-1.90;99.90
68051;DHT22;54839;51.364;7.246;2023-02-27T00:46:51;-1.90;99.90
68051;DHT22;54839;51.364;7.246;2023-02-27T00:49:16;-1.90;99.90
68051;DHT22;54839;51.364;7.246;2023-02-27T00:51:44;-1.90;99.90
68051;DHT22;54839;51.364;7.246;2023-02-27T00:54:09;-1.80;99.90
68051;DHT22;54839;51.364;7.246;2023-02-27T00:56:35;-1.80;99.90
68051;DHT22;54839;51.364;7.246;2023-02-27T00:59:01;-1.90;99.90
68051;DHT22;54839;51.364;7.246;2023-02-27T01:01:26;-1.90;99.90
68051;DHT22;54839;51.364;7.246;2023-02-27T01:03:52;-1.80;99.90
68051;DHT22;54839;51.364;7.246;2023-02-27T01:06:17;-1.90;99.90
68051;DHT22;54839;51.364;7.246;2023-02-27T01:08:43;-1.90;99.90
68051;DHT22;54839;51.364;7.246;2023-02-27T01:11:09;-1.90;99.90
68051;DHT22;54839;51.364;7.246;2023-02-27T01:13:34;-1.90;99.90
68051;DHT22;54839;51.364;7.246;2023-02-27T01:16:00;-2.00;99.90
68051;DHT22;54839;51.364;7.246;2023-02-27T01:18:26;-2.00;99.90
68051;DHT22;54839;51.364;7.246;2023-02-27T01:20:55;-2.00;99.90
68051;DHT22;54839;51.364;7.246;2023-02-27T01:23:21;-2.00;99.90
68051;DHT22;54839;51.364;7.246;2023-02-27T01:25:47;-2.00;99.90
68051;DHT22;54839;51.364;7.246;2023-02-27T01:28:14;-2.10;99.90
68051;DHT22;54839;51.364;7.246;2023-02-27T01:30:40;-2.10;99.90
68051;DHT22;54839;51.364;7.246;2023-02-27T01:33:06;-2.10;99.90
68051;DHT22;54839;51.364;7.246;2023-02-27T01:35:33;-2.20;99.90
68051;DHT22;54839;51.364;7.246;2023-02-27T01:37:59;-2.10;99.90
68051;DHT22;54839;51.364;7.246;2023-02-27T01:40:24;-2.20;99.90
68051;DHT22;54839;51.364;7.246;2023-02-27T01:42:50;-2.20;99.90
68051;DHT22;54839;51.364;7.246;2023-02-27T01:47:56;-2.50;99.90
68051;DHT22;54839;51.364;7.246;2023-02-27T01:50:23;-2.50;99.90
68051;DHT22;54839;51.364;7.246;2023-02-27T01:52:53;-2.50;99.90
68051;DHT22;54839;51.364;7.246;2023-02-27T01:55:20;-2.50;99.90
68051;DHT22;54839;51.364;7.246;2023-02-27T01:57:48;-2.50;99.90
68051;DHT22;54839;51.364;7.246;2023-02-27T02:00:15;-2.50;99.90
68051;DHT22;54839;51.364;7.246;2023-02-27T02:02:45;-2.60;99.90
68051;DHT22;54839;51.364;7.246;2023-02-27T02:05:12;-2.70;99.90
68051;DHT22;54839;51.364;7.246;2023-02-27T02:07:39;-2.70;99.90
68051;DHT22;54839;51.364;7.246;2023-02-27T02:10:06;-2.70;99.90
68051;DHT22;54839;51.364;7.246;2023-02-27T02:12:34;-2.70;99.90
68051;DHT22;54839;51.364;7.246;2023-02-27T02:15:01;-2.80;99.90
68051;DHT22;54839;51.364;7.246;2023-02-27T02:29:12;-2.70;99.90
68051;DHT22;54839;51.364;7.246;2023-02-27T02:40:07;-3.00;99.90
68051;DHT22;54839;51.364;7.246;2023-02-27T02:42:44;-3.10;99.90
68051;DHT22;54839;51.364;7.246;2023-02-27T02:45:28;-3.30;99.90
68051;DHT22;54839;51.364;7.246;2023-02-27T02:48:25;-3.30;99.90
68051;DHT22;54839;51.364;7.246;2023-02-27T02:59:17;-3.30;99.90
68051;DHT22;54839;51.364;7.246;2023-02-27T03:04:30;-3.20;99.90
68051;DHT22;54839;51.364;7.246;2023-02-27T03:07:13;-3.20;99.90
68051;DHT22;54839;51.364;7.246;2023-02-27T03:09:55;-3.30;99.90
68051;DHT22;54839;51.364;7.246;2023-02-27T03:12:23;-3.40;99.90
68051;DHT22;54839;51.364;7.246;2023-02-27T03:15:15;-3.50;99.90
68051;DHT22;54839;51.364;7.246;2023-02-27T03:17:43;-3.50;99.90
68051;DHT22;54839;51.364;7.246;2023-02-27T03:20:15;-3.50;99.90
68051;DHT22;54839;51.364;7.246;2023-02-27T03:22:45;-3.40;99.90
68051;DHT22;54839;51.364;7.246;2023-02-27T03:25:12;-3.50;99.90
68051;DHT22;54839;51.364;7.246;2023-02-27T03:27:44;-3.50;99.90
68051;DHT22;54839;51.364;7.246;2023-02-27T03:30:17;-3.50;99.90
68051;DHT22;54839;51.364;7.246;2023-02-27T03:35:38;-3.60;99.90
68051;DHT22;54839;51.364;7.246;2023-02-27T03:38:15;-3.50;99.90
68051;DHT22;54839;51.364;7.246;2023-02-27T03:40:51;-3.60;99.90
68051;DHT22;54839;51.364;7.246;2023-02-27T03:43:28;-3.60;99.90
68051;DHT22;54839;51.364;7.246;2023-02-27T03:46:15;-3.60;99.90
68051;DHT22;54839;51.364;7.246;2023-02-27T03:48:41;-3.60;99.90
68051;DHT22;54839;51.364;7.246;2023-02-27T03:51:15;-3.70;99.90
68051;DHT22;54839;51.364;7.246;2023-02-27T03:53:53;-3.60;99.90
68051;DHT22;54839;51.364;7.246;2023-02-27T03:56:30;-3.60;99.90
68051;DHT22;54839;51.364;7.246;2023-02-27T03:58:56;-3.50;99.90
68051;DHT22;54839;51.364;7.246;2023-02-27T04:01:22;-3.50;99.90
68051;DHT22;54839;51.364;7.246;2023-02-27T04:04:02;-3.50;99.90
68051;DHT22;54839;51.364;7.246;2023-02-27T04:06:30;-3.60;99.90
68051;DHT22;54839;51.364;7.246;2023-02-27T04:09:38;-3.70;99.90
68051;DHT22;54839;51.364;7.246;2023-02-27T04:12:20;-3.60;99.90
68051;DHT22;54839;51.364;7.246;2023-02-27T04:17:30;-3.60;99.90
68051;DHT22;54839;51.364;7.246;2023-02-27T04:20:19;-3.60;99.90
68051;DHT22;54839;51.364;7.246;2023-02-27T04:22:54;-3.70;99.90
68051;DHT22;54839;51.364;7.246;2023-02-27T04:25:50;-3.70;99.90
68051;DHT22;54839;51.364;7.246;2023-02-27T04:28:54;-3.80;99.90
68051;DHT22;54839;51.364;7.246;2023-02-27T04:31:31;-3.70;99.90
68051;DHT22;54839;51.364;7.246;2023-02-27T04:34:18;-3.70;99.90
68051;DHT22;54839;51.364;7.246;2023-02-27T04:36:55;-3.60;99.90
68051;DHT22;54839;51.364;7.246;2023-02-27T04:39:36;-3.70;99.90
68051;DHT22;54839;51.364;7.246;2023-02-27T04:42:07;-3.80;99.90
68051;DHT22;54839;51.364;7.246;2023-02-27T04:44:36;-3.70;99.90
68051;DHT22;54839;51.364;7.246;2023-02-27T04:47:03;-3.70;99.90
68051;DHT22;54839;51.364;7.246;2023-02-27T04:49:35;-3.90;99.90
68051;DHT22;54839;51.364;7.246;2023-02-27T04:52:21;-4.00;99.90
68051;DHT22;54839;51.364;7.246;2023-02-27T04:54:55;-4.00;99.90
68051;DHT22;54839;51.364;7.246;2023-02-27T04:57:30;-4.00;99.90
68051;DHT22;54839;51.364;7.246;2023-02-27T05:00:02;-3.90;99.90
68051;DHT22;54839;51.364;7.246;2023-02-27T05:02:42;-4.00;99.90
68051;DHT22;54839;51.364;7.246;2023-02-27T05:05:12;-3.90;99.90
68051;DHT22;54839;51.364;7.246;2023-02-27T05:07:43;-4.00;99.90
68051;DHT22;54839;51.364;7.246;2023-02-27T05:10:14;-3.90;99.90
68051;DHT22;54839;51.364;7.246;2023-02-27T05:12:48;-4.00;99.90
68051;DHT22;54839;51.364;7.246;2023-02-27T05:15:26;-3.90;99.90
68051;DHT22;54839;51.364;7.246;2023-02-27T05:17:59;-4.00;99.90
68051;DHT22;54839;51.364;7.246;2023-02-27T05:20:32;-4.00;99.90
68051;DHT22;54839;51.364;7.246;2023-02-27T05:23:31;-4.00;99.90
68051;DHT22;54839;51.364;7.246;2023-02-27T05:25:59;-4.10;99.90
68051;DHT22;54839;51.364;7.246;2023-02-27T05:31:13;-4.00;99.90
68051;DHT22;54839;51.364;7.246;2023-02-27T05:33:58;-4.10;99.90
68051;DHT22;54839;51.364;7.246;2023-02-27T05:36:30;-4.00;99.90
68051;DHT22;54839;51.364;7.246;2023-02-27T05:39:03;-4.00;99.90
68051;DHT22;54839;51.364;7.246;2023-02-27T05:41:38;-3.90;99.90
68051;DHT22;54839;51.364;7.246;2023-02-27T05:44:11;-3.90;99.90
68051;DHT22;54839;51.364;7.246;2023-02-27T05:46:41;-4.10;99.90
68051;DHT22;54839;51.364;7.246;2023-02-27T05:49:16;-4.20;99.90
68051;DHT22;54839;51.364;7.246;2023-02-27T05:51:46;-4.30;99.90
68051;DHT22;54839;51.364;7.246;2023-02-27T05:54:21;-4.40;99.90
68051;DHT22;54839;51.364;7.246;2023-02-27T05:56:50;-4.40;99.90
68051;DHT22;54839;51.364;7.246;2023-02-27T05:59:23;-4.30;99.90
68051;DHT22;54839;51.364;7.246;2023-02-27T06:01:51;-4.30;99.90
68051;DHT22;54839;51.364;7.246;2023-02-27T06:04:17;-4.20;99.90
68051;DHT22;54839;51.364;7.246;2023-02-27T06:06:43;-4.20;99.90
68051;DHT22;54839;51.364;7.246;2023-02-27T06:09:09;-4.10;99.90
68051;DHT22;54839;51.364;7.246;2023-02-27T06:11:34;-4.10;99.90
68051;DHT22;54839;51.364;7.246;2023-02-27T06:14:00;-4.10;99.90
68051;DHT22;54839;51.364;7.246;2023-02-27T06:16:26;-4.10;99.90
68051;DHT22;54839;51.364;7.246;2023-02-27T06:18:51;-4.10;99.90
68051;DHT22;54839;51.364;7.246;2023-02-27T06:21:17;-4.10;99.90
68051;DHT22;54839;51.364;7.246;2023-02-27T06:23:43;-4.20;99.90
68051;DHT22;54839;51.364;7.246;2023-02-27T06:26:08;-4.10;99.90
68051;DHT22;54839;51.364;7.246;2023-02-27T06:28:38;-4.10;99.90
68051;DHT22;54839;51.364;7.246;2023-02-27T06:31:04;-4.10;99.90
68051;DHT22;54839;51.364;7.246;2023-02-27T06:33:29;-4.00;99.90
68051;DHT22;54839;51.364;7.246;2023-02-27T06:35:55;-4.10;99.90
68051;DHT22;54839;51.364;7.246;2023-02-27T06:38:20;-4.10;99.90
68051;DHT22;54839;51.364;7.246;2023-02-27T06:40:46;-4.10;99.90
68051;DHT22;54839;51.364;7.246;2023-02-27T06:43:11;-4.10;99.90
68051;DHT22;54839;51.364;7.246;2023-02-27T06:45:37;-4.20;99.90
68051;DHT22;54839;51.364;7.246;2023-02-27T06:48:03;-4.00;99.90
68051;DHT22;54839;51.364;7.246;2023-02-27T06:50:28;-4.00;99.90
68051;DHT22;54839;51.364;7.246;2023-02-27T06:52:54;-4.00;99.90
68051;DHT22;54839;51.364;7.246;2023-02-27T06:55:19;-3.90;99.90
68051;DHT22;54839;51.364;7.246;2023-02-27T06:57:47;-3.90;99.90
68051;DHT22;54839;51.364;7.246;2023-02-27T07:00:14;-3.80;99.90
68051;DHT22;54839;51.364;7.246;2023-02-27T07:02:40;-3.70;99.90
68051;DHT22;54839;51.364;7.246;2023-02-27T07:05:06;-3.70;99.90
68051;DHT22;54839;51.364;7.246;2023-02-27T07:07:32;-3.60;99.90
68051;DHT22;54839;51.364;7.246;2023-02-27T07:09:58;-3.50;99.90
68051;DHT22;54839;51.364;7.246;2023-02-27T07:12:23;-3.50;99.90
68051;DHT22;54839;51.364;7.246;2023-02-27T07:14:49;-3.30;99.90
68051;DHT22;54839;51.364;7.246;2023-02-27T07:17:14;-3.20;99.90
68051;DHT22;54839;51.364;7.246;2023-02-27T07:19:40;-3.10;99.90
68051;DHT22;54839;51.364;7.246;2023-02-27T07:22:05;-3.20;99.90
68051;DHT22;54839;51.364;7.246;2023-02-27T07:24:34;-3.10;99.90
68051;DHT22;54839;51.364;7.246;2023-02-27T07:26:59;-3.10;99.90
68051;DHT22;54839;51.364;7.246;2023-02-27T07:29:25;-3.00;99.90
68051;DHT22;54839;51.364;7.246;2023-02-27T07:31:51;-2.90;99.90
68051;DHT22;54839;51.364;7.246;2023-02-27T07:34:17;-2.70;99.90
68051;DHT22;54839;51.364;7.246;2023-02-27T07:36:42;-2.50;99.90
68051;DHT22;54839;51.364;7.246;2023-02-27T07:39:08;-2.50;99.90
68051;DHT22;54839;51.364;7.246;2023-02-27T07:41:35;-2.40;99.90
68051;DHT22;54839;51.364;7.246;2023-02-27T07:44:01;-2.40;99.90
68051;DHT22;54839;51.364;7.246;2023-02-27T07:46:26;-2.40;99.90
68051;DHT22;54839;51.364;7.246;2023-02-27T07:48:52;-2.30;99.90
68051;DHT22;54839;51.364;7.246;2023-02-27T07:51:18;-2.00;99.90
68051;DHT22;54839;51.364;7.246;2023-02-27T07:53:44;-1.80;99.90
68051;DHT22;54839;51.364;7.246;2023-02-27T07:56:10;-1.70;99.90
68051;DHT22;54839;51.364;7.246;2023-02-27T07:58:35;-1.60;99.90
68051;DHT22;54839;51.364;7.246;2023-02-27T08:01:00;-1.40;99.90
68051;DHT22;54839;51.364;7.246;2023-02-27T08:03:26;-1.40;99.90
68051;DHT22;54839;51.364;7.246;2023-02-27T08:05:51;-1.30;99.90
68051;DHT22;54839;51.364;7.246;2023-02-27T08:08:17;-1.30;99.90
68051;DHT22;54839;51.364;7.246;2023-02-27T08:10:42;-1.30;99.90
68051;DHT22;54839;51.364;7.246;2023-02-27T08:13:08;-1.10;99.90
68051;DHT22;54839;51.364;7.246;2023-02-27T08:15:34;-1.10;99.90
68051;DHT22;54839;51.364;7.246;2023-02-27T08:17:59;-0.90;99.90
68051;DHT22;54839;51.364;7.246;2023-02-27T08:20:25;-0.80;99.90
68051;DHT22;54839;51.364;7.246;2023-02-27T08:22:52;-0.70;99.90
68051;DHT22;54839;51.364;7.246;2023-02-27T08:25:17;-0.60;99.90
68051;DHT22;54839;51.364;7.246;2023-02-27T08:27:43;-0.60;99.90
68051;DHT22;54839;51.364;7.246;2023-02-27T08:30:11;-0.50;99.90
68051;DHT22;54839;51.364;7.246;2023-02-27T08:32:37;-0.40;99.90
68051;DHT22;54839;51.364;7.246;2023-02-27T08:35:03;-0.40;99.90
68051;DHT22;54839;51.364;7.246;2023-02-27T08:37:29;-0.20;99.90
68051;DHT22;54839;51.364;7.246;2023-02-27T08:39:55;-0.30;99.90
68051;DHT22;54839;51.364;7.246;2023-02-27T08:42:20;-0.10;99.90
68051;DHT22;54839;51.364;7.246;2023-02-27T08:44:46;-0.10;99.90
68051;DHT22;54839;51.364;7.246;2023-02-27T08:47:11;0.00;99.90
68051;DHT22;54839;51.364;7.246;2023-02-27T08:49:37;0.00;99.90
68051;DHT22;54839;51.364;7.246;2023-02-27T08:52:03;0.00;99.90
68051;DHT22;54839;51.364;7.246;2023-02-27T08:54:30;0.10;99.90
68051;DHT22;54839;51.364;7.246;2023-02-27T08:56:55;0.20;99.90
68051;DHT22;54839;51.364;7.246;2023-02-27T08:59:21;0.30;99.90
68051;DHT22;54839;51.364;7.246;2023-02-27T09:01:46;0.30;99.90
68051;DHT22;54839;51.364;7.246;2023-02-27T09:04:12;0.50;99.90
68051;DHT22;54839;51.364;7.246;2023-02-27T09:06:38;0.50;99.90
68051;DHT22;54839;51.364;7.246;2023-02-27T09:09:04;0.40;99.90
68051;DHT22;54839;51.364;7.246;2023-02-27T09:11:30;0.60;99.90
68051;DHT22;54839;51.364;7.246;2023-02-27T09:13:56;0.80;99.90
68051;DHT22;54839;51.364;7.246;2023-02-27T09:16:23;0.80;99.90
68051;DHT22;54839;51.364;7.246;2023-02-27T09:18:49;0.90;99.90
68051;DHT22;54839;51.364;7.246;2023-02-27T09:21:15;0.90;99.90
68051;DHT22;54839;51.364;7.246;2023-02-27T09:23:41;1.00;99.90
68051;DHT22;54839;51.364;7.246;2023-02-27T09:26:07;1.00;99.90
68051;DHT22;54839;51.364;7.246;2023-02-27T09:28:36;1.10;99.90
68051;DHT22;54839;51.364;7.246;2023-02-27T09:31:05;1.10;99.90
68051;DHT22;54839;51.364;7.246;2023-02-27T09:33:32;1.20;99.90
68051;DHT22;54839;51.364;7.246;2023-02-27T09:35:58;1.10;99.90
68051;DHT22;54839;51.364;7.246;2023-02-27T09:38:24;1.30;99.90
68051;DHT22;54839;51.364;7.246;2023-02-27T09:40:52;1.40;99.90
68051;DHT22;54839;51.364;7.246;2023-02-27T09:43:22;1.40;99.90
68051;DHT22;54839;51.364;7.246;2023-02-27T09:45:52;1.50;99.90
68051;DHT22;54839;51.364;7.246;2023-02-27T09:51:16;1.50;99.90
68051;DHT22;54839;51.364;7.246;2023-02-27T09:53:46;1.60;99.90
68051;DHT22;54839;51.364;7.246;2023-02-27T09:56:23;1.80;99.90
68051;DHT22;54839;51.364;7.246;2023-02-27T10:01:36;1.90;99.90
68051;DHT22;54839;51.364;7.246;2023-02-27T10:06:59;2.00;99.90
68051;DHT22;54839;51.364;7.246;2023-02-27T10:09:49;2.20;99.90
68051;DHT22;54839;51.364;7.246;2023-02-27T10:12:28;2.20;99.90
68051;DHT22;54839;51.364;7.246;2023-02-27T10:15:01;2.20;99.90
68051;DHT22;54839;51.364;7.246;2023-02-27T10:17:34;2.30;99.90
68051;DHT22;54839;51.364;7.246;2023-02-27T10:20:06;2.60;99.90
68051;DHT22;54839;51.364;7.246;2023-02-27T10:22:37;2.70;99.90
68051;DHT22;54839;51.364;7.246;2023-02-27T10:25:17;2.80;99.90
68051;DHT22;54839;51.364;7.246;2023-02-27T10:27:46;3.00;99.90
68051;DHT22;54839;51.364;7.246;2023-02-27T10:30:23;3.20;99.90
68051;DHT22;54839;51.364;7.246;2023-02-27T10:33:07;3.20;99.90
68051;DHT22;54839;51.364;7.246;2023-02-27T10:35:37;3.30;99.90
68051;DHT22;54839;51.364;7.246;2023-02-27T10:39:06;3.10;99.90
68051;DHT22;54839;51.364;7.246;2023-02-27T10:41:03;3.10;99.90
68051;DHT22;54839;51.364;7.246;2023-02-27T10:43:29;3.10;99.90
68051;DHT22;54839;51.364;7.246;2023-02-27T10:45:55;3.00;99.90
68051;DHT22;54839;51.364;7.246;2023-02-27T10:48:20;3.20;99.90
68051;DHT22;54839;51.364;7.246;2023-02-27T10:50:48;3.40;99.90
68051;DHT22;54839;51.364;7.246;2023-02-27T10:53:22;3.60;99.90
68051;DHT22;54839;51.364;7.246;2023-02-27T10:56:03;3.50;99.90
68051;DHT22;54839;51.364;7.246;2023-02-27T10:58:36;3.50;99.90
68051;DHT22;54839;51.364;7.246;2023-02-27T11:01:08;3.40;99.90
68051;DHT22;54839;51.364;7.246;2023-02-27T11:03:35;3.40;99.90
68051;DHT22;54839;51.364;7.246;2023-02-27T11:08:31;3.60;99.90
68051;DHT22;54839;51.364;7.246;2023-02-27T11:11:01;3.30;99.90
68051;DHT22;54839;51.364;7.246;2023-02-27T11:13:29;3.10;99.90
68051;DHT22;54839;51.364;7.246;2023-02-27T11:16:16;2.90;99.90
68051;DHT22;54839;51.364;7.246;2023-02-27T11:18:44;2.90;99.90
68051;DHT22;54839;51.364;7.246;2023-02-27T11:21:14;2.90;99.90
68051;DHT22;54839;51.364;7.246;2023-02-27T11:23:56;2.90;99.90
68051;DHT22;54839;51.364;7.246;2023-02-27T11:31:36;3.20;99.90
68051;DHT22;54839;51.364;7.246;2023-02-27T11:34:02;3.10;99.90
68051;DHT22;54839;51.364;7.246;2023-02-27T11:36:50;3.10;99.90
68051;DHT22;54839;51.364;7.246;2023-02-27T11:41:45;3.40;99.90
68051;DHT22;54839;51.364;7.246;2023-02-27T11:44:16;3.50;99.90
68051;DHT22;54839;51.364;7.246;2023-02-27T11:46:42;3.40;99.90
68051;DHT22;54839;51.364;7.246;2023-02-27T11:49:36;3.50;99.90
68051;DHT22;54839;51.364;7.246;2023-02-27T11:52:18;3.60;99.90
68051;DHT22;54839;51.364;7.246;2023-02-27T11:54:54;3.70;99.90
68051;DHT22;54839;51.364;7.246;2023-02-27T11:57:34;3.70;99.90
68051;DHT22;54839;51.364;7.246;2023-02-27T12:00:24;3.70;99.90
68051;DHT22;54839;51.364;7.246;2023-02-27T12:05:39;3.90;99.90
68051;DHT22;54839;51.364;7.246;2023-02-27T12:08:13;3.90;99.90
68051;DHT22;54839;51.364;7.246;2023-02-27T12:11:02;4.00;99.90
68051;DHT22;54839;51.364;7.246;2023-02-27T12:13:34;4.10;99.90
68051;DHT22;54839;51.364;7.246;2023-02-27T12:19:08;4.40;99.90
68051;DHT22;54839;51.364;7.246;2023-02-27T12:21:42;4.50;99.90
68051;DHT22;54839;51.364;7.246;2023-02-27T12:24:25;4.60;99.90
68051;DHT22;54839;51.364;7.246;2023-02-27T12:27:15;4.80;99.90
68051;DHT22;54839;51.364;7.246;2023-02-27T12:29:50;5.00;99.90
68051;DHT22;54839;51.364;7.246;2023-02-27T12:32:33;5.20;99.90
68051;DHT22;54839;51.364;7.246;2023-02-27T12:37:31;5.40;99.90
68051;DHT22;54839;51.364;7.246;2023-02-27T12:40:00;5.60;99.90
68051;DHT22;54839;51.364;7.246;2023-02-27T12:54:09;6.80;99.90
68051;DHT22;54839;51.364;7.246;2023-02-27T12:56:53;6.10;99.90
68051;DHT22;54839;51.364;7.246;2023-02-27T12:59:39;5.60;99.90
68051;DHT22;54839;51.364;7.246;2023-02-27T13:07:34;4.80;99.90
68051;DHT22;54839;51.364;7.246;2023-02-27T13:10:18;4.70;99.90
68051;DHT22;54839;51.364;7.246;2023-02-27T13:12:55;4.70;99.90
68051;DHT22;54839;51.364;7.246;2023-02-27T13:15:56;4.50;99.90
68051;DHT22;54839;51.364;7.246;2023-02-27T13:26:42;6.60;99.90
68051;DHT22;54839;51.364;7.246;2023-02-27T13:29:14;7.80;99.90
68051;DHT22;54839;51.364;7.246;2023-02-27T13:34:56;9.10;99.90
68051;DHT22;54839;51.364;7.246;2023-02-27T13:37:24;9.50;99.90
68051;DHT22;54839;51.364;7.246;2023-02-27T13:43:02;10.90;99.90
68051;DHT22;54839;51.364;7.246;2023-02-27T13:50:59;7.20;99.90
68051;DHT22;54839;51.364;7.246;2023-02-27T13:53:25;6.90;99.90
68051;DHT22;54839;51.364;7.246;2023-02-27T13:55:56;6.50;99.90
68051;DHT22;54839;51.364;7.246;2023-02-27T13:58:22;6.30;99.90
68051;DHT22;54839;51.364;7.246;2023-02-27T14:00:57;6.10;99.90
68051;DHT22;54839;51.364;7.246;2023-02-27T14:03:26;6.20;99.90
68051;DHT22;54839;51.364;7.246;2023-02-27T14:05:56;6.60;99.90
68051;DHT22;54839;51.364;7.246;2023-02-27T14:08:25;6.10;99.90
68051;DHT22;54839;51.364;7.246;2023-02-27T14:16:10;6.10;99.90
68051;DHT22;54839;51.364;7.246;2023-02-27T14:18:55;6.30;99.90
68051;DHT22;54839;51.364;7.246;2023-02-27T14:24:33;7.50;99.90
68051;DHT22;54839;51.364;7.246;2023-02-27T14:27:03;8.20;99.90
68051;DHT22;54839;51.364;7.246;2023-02-27T14:29:31;7.00;99.90
68051;DHT22;54839;51.364;7.246;2023-02-27T14:32:04;6.40;99.90
68051;DHT22;54839;51.364;7.246;2023-02-27T14:34:35;6.50;99.90
68051;DHT22;54839;51.364;7.246;2023-02-27T14:37:05;8.70;99.90
68051;DHT22;54839;51.364;7.246;2023-02-27T14:39:34;10.80;97.20
68051;DHT22;54839;51.364;7.246;2023-02-27T14:42:23;12.60;92.70
68051;DHT22;54839;51.364;7.246;2023-02-27T14:44:50;12.20;84.10
68051;DHT22;54839;51.364;7.246;2023-02-27T14:47:23;12.10;83.40
68051;DHT22;54839;51.364;7.246;2023-02-27T14:49:49;12.20;84.00
68051;DHT22;54839;51.364;7.246;2023-02-27T14:52:27;13.00;79.00
68051;DHT22;54839;51.364;7.246;2023-02-27T14:55:11;13.30;77.70
68051;DHT22;54839;51.364;7.246;2023-02-27T14:57:38;13.30;76.00
68051;DHT22;54839;51.364;7.246;2023-02-27T15:00:05;14.20;72.30
68051;DHT22;54839;51.364;7.246;2023-02-27T15:02:33;13.40;70.90
68051;DHT22;54839;51.364;7.246;2023-02-27T15:07:29;11.60;72.90
68051;DHT22;54839;51.364;7.246;2023-02-27T15:09:56;9.80;78.50
68051;DHT22;54839;51.364;7.246;2023-02-27T15:12:24;9.00;84.20
68051;DHT22;54839;51.364;7.246;2023-02-27T15:14:58;8.20;88.20
68051;DHT22;54839;51.364;7.246;2023-02-27T15:17:26;9.40;91.00
68051;DHT22;54839;51.364;7.246;2023-02-27T15:19:57;9.80;83.60
68051;DHT22;54839;51.364;7.246;2023-02-27T15:22:28;8.90;88.50
68051;DHT22;54839;51.364;7.246;2023-02-27T15:24:57;8.90;89.30
68051;DHT22;54839;51.364;7.246;2023-02-27T15:27:25;10.20;85.10
68051;DHT22;54839;51.364;7.246;2023-02-27T15:29:54;11.80;81.50
68051;DHT22;54839;51.364;7.246;2023-02-27T15:32:36;11.60;77.20
68051;DHT22;54839;51.364;7.246;2023-02-27T15:35:12;12.40;77.40
68051;DHT22;54839;51.364;7.246;2023-02-27T15:37:40;13.60;74.10
68051;DHT22;54839;51.364;7.246;2023-02-27T15:40:16;13.60;71.30
68051;DHT22;54839;51.364;7.246;2023-02-27T15:42:43;13.00;72.80
68051;DHT22;54839;51.364;7.246;2023-02-27T15:45:21;11.10;75.00
68051;DHT22;54839;51.364;7.246;2023-02-27T15:47:48;9.30;81.70
68051;DHT22;54839;51.364;7.246;2023-02-27T15:52:49;7.50;90.50
68051;DHT22;54839;51.364;7.246;2023-02-27T15:55:36;7.10;93.00
68051;DHT22;54839;51.364;7.246;2023-02-27T15:58:26;6.70;95.30
68051;DHT22;54839;51.364;7.246;2023-02-27T16:03:29;6.10;99.40
68051;DHT22;54839;51.364;7.246;2023-02-27T16:05:58;5.80;99.90
68051;DHT22;54839;51.364;7.246;2023-02-27T16:08:24;5.80;99.90
68051;DHT22;54839;51.364;7.246;2023-02-27T16:10:50;5.80;99.90
68051;DHT22;54839;51.364;7.246;2023-02-27T16:18:43;5.50;99.90
68051;DHT22;54839;51.364;7.246;2023-02-27T16:21:17;5.40;99.90
68051;DHT22;54839;51.364;7.246;2023-02-27T16:23:43;5.30;99.90
68051;DHT22;54839;51.364;7.246;2023-02-27T16:26:22;5.00;99.90
68051;DHT22;54839;51.364;7.246;2023-02-27T16:28:53;5.10;99.90
68051;DHT22;54839;51.364;7.246;2023-02-27T16:31:34;5.00;99.90
68051;DHT22;54839;51.364;7.246;2023-02-27T16:37:00;5.10;99.90
68051;DHT22;54839;51.364;7.246;2023-02-27T16:39:26;4.90;99.90
68051;DHT22;54839;51.364;7.246;2023-02-27T16:41:53;4.80;99.90
68051;DHT22;54839;51.364;7.246;2023-02-27T16:44:19;4.70;99.90
68051;DHT22;54839;51.364;7.246;2023-02-27T16:46:46;4.60;99.90
68051;DHT22;54839;51.364;7.246;2023-02-27T16:49:32;4.60;99.90
68051;DHT22;54839;51.364;7.246;2023-02-27T16:51:57;4.50;99.90
68051;DHT22;54839;51.364;7.246;2023-02-27T16:54:25;4.50;99.90
68051;DHT22;54839;51.364;7.246;2023-02-27T16:56:51;4.40;99.90
68051;DHT22;54839;51.364;7.246;2023-02-27T16:59:33;4.30;99.90
68051;DHT22;54839;51.364;7.246;2023-02-27T17:02:04;4.10;99.90
68051;DHT22;54839;51.364;7.246;2023-02-27T17:04:30;4.00;99.90
68051;DHT22;54839;51.364;7.246;2023-02-27T17:06:58;3.90;99.90
68051;DHT22;54839;51.364;7.246;2023-02-27T17:09:24;4.00;99.90
68051;DHT22;54839;51.364;7.246;2023-02-27T17:11:54;3.90;99.90
68051;DHT22;54839;51.364;7.246;2023-02-27T17:14:21;3.90;99.90
68051;DHT22;54839;51.364;7.246;2023-02-27T17:16:47;3.80;99.90
68051;DHT22;54839;51.364;7.246;2023-02-27T17:19:12;3.80;99.90
68051;DHT22;54839;51.364;7.246;2023-02-27T17:21:41;3.80;99.90
68051;DHT22;54839;51.364;7.246;2023-02-27T17:24:07;3.70;99.90
68051;DHT22;54839;51.364;7.246;2023-02-27T17:26:33;3.50;99.90
68051;DHT22;54839;51.364;7.246;2023-02-27T17:28:59;3.40;99.90
68051;DHT22;54839;51.364;7.246;2023-02-27T17:31:27;3.30;99.90
68051;DHT22;54839;51.364;7.246;2023-02-27T17:33:53;3.20;99.90
68051;DHT22;54839;51.364;7.246;2023-02-27T17:36:20;3.10;99.90
68051;DHT22;54839;51.364;7.246;2023-02-27T17:38:46;3.10;99.90
68051;DHT22;54839;51.364;7.246;2023-02-27T17:41:13;3.10;99.90
68051;DHT22;54839;51.364;7.246;2023-02-27T17:43:39;3.00;99.90
68051;DHT22;54839;51.364;7.246;2023-02-27T17:46:09;3.00;99.90
68051;DHT22;54839;51.364;7.246;2023-02-27T17:48:36;3.10;99.90
68051;DHT22;54839;51.364;7.246;2023-02-27T17:51:12;3.00;99.90
68051;DHT22;54839;51.364;7.246;2023-02-27T17:53:39;3.00;99.90
68051;DHT22;54839;51.364;7.246;2023-02-27T17:56:05;2.80;99.90
68051;DHT22;54839;51.364;7.246;2023-02-27T17:58:32;2.80;99.90
68051;DHT22;54839;51.364;7.246;2023-02-27T18:01:13;2.70;99.90
68051;DHT22;54839;51.364;7.246;2023-02-27T18:03:39;2.70;99.90
68051;DHT22;54839;51.364;7.246;2023-02-27T18:06:06;2.80;99.90
68051;DHT22;54839;51.364;7.246;2023-02-27T18:08:32;2.80;99.90